Página principal
METAR-TAF:

METAR-TAF

Aeroportos :

Aeroporto Internacional de Wattay

Vientiane, Laos

latitude: 17-57N, longitude: 102-34E, altura: 171 m

Observação actual do tempo

O boletim foi feito há 31 minutos, às 16:00 UTC
Vento calmo
Temperatura 26°C
Humidade 94%
Pressão 1013 hPa
Visibilidade: 4000 m
neblina

METAR: VLVT 231600Z 00000KT 4000 BR NSC 26/25 Q1013 NOSIG

Hora: 23:31 (16:31 UTC)

Previsão

O boletim foi feito há 5 horas e 31 minutos, às 11:00 UTC
Previsão válida de 23 às 12 UTC a 24 às 12 UTC
Vento 4 kt de su-sudeste
Visibilidade 10 km ou mais
Nuvens dispersasa uma altura de 2000 ft
Poucas nuvensa uma altura de 5000 ft
Temporariamente
de 23 às 14 UTC a 23 às 20 UTC
Visibilidade: 4000 m
Nuvens dispersasa uma altura de 4000 ft
Poucas nuvensa uma altura de 20000 ft
neblina

TAF: VLVT 231100Z 2312/2412 16004KT 9999 SCT020 FEW050 TEMPO 2314/2320 4000 BR SCT040 FEW200

Observações e previsões do tempo de mais de 4000 aeroportos (mensagens METAR e TAF).

As estações disponíveis são os pontos amarelos e vermelhos sobre o mapa.

Mova o rato sobre o mapa para ver o nome da estação.

Depois clique no ponto para visualizar as observações e previsões meteorológicas.

Para alterar o mapa : clique nos botões verdes com uma cruz preta para aumentar o zoom; no botão verde com uma pitada de zoom; ou nas setas verdes para mapas adjacentes.


METAR-TAF: